航空気象通報

ウインドサーファーのための航空気象通報による風予報です。

12/28-12/30の航空気象通報

2016年12月28日 23時14分36秒 | TAF
羽田空港
TAF RJTT 281105Z 2812/2918 05010KT 9999 FEW030 SCT050
BECMG 2816/2818 35004KT
BECMG 2900/2903 21020KT
TEMPO 2900/2906 21022G34KT
BECMG 2909/2912 31008KT
日本時間28日21時-29日01時:050度から10ノットの風
01-03時:風が変化
03-09時:350度から4ノットの風
09-12時:風が変化
12-18時:210度から20ノットの風
但し、29日09-15時の間:ときどき210度から22ノット、突風34ノット
18-21時:風が変化
21時-30日03時:310度から8ノットの風


静岡空港
TAF RJNS 281109Z 2812/2918 32006KT 9999 FEW020 BKN040
BECMG 2900/2903 26016KT
TEMPO 2903/2909 26018G28KT
日本時間28日21時-29日09時:320度から6ノットの風
09-12時:風が変化
12時-30日03時:260度から16ノットの風
但し、29日12-18時の間:ときどき260度から18ノット、突風28ノット


福岡空港
TAF RJFF 281105Z 2812/2918 15007KT 9999 FEW030 SCT040
BECMG 2822/2824 33010KT
日本時間29日21時-30日07時:150度から7ノットの風
07-09時:風が変化
09時-30日03時:330度から10ノットの風


那覇空港
TAF ROAH 281108Z 2812/2918 03008KT 9999 FEW035 BKN045
BECMG 2903/2906 01020KT
日本時間28日21時-29日12時:030度から8ノットの風
12-15時:風が変化
15時-30日03時:010度から20ノットの風


石垣空港
TAF ROIG 281111Z 2812/2918 03012KT 9999 FEW020 BKN040
TEMPO 2814/2816 4000 RA
TEMPO 2900/2912 02022G32KT
日本時間28日21時-30日03時:030度から12ノットの風
但し、29日09-21時の間:ときどき020度から22ノット、突風32ノット

但し、28日23時-29日01時の間:ときどき

マウイのカフルイ空港
PHOG 281132Z 2812/2912 06010G16KT P6SM VCSH FEW025 BKN045
FM281900 06016G26KT P6SM VCSH FEW030 BKN050
FM282100 06020G30KT P6SM FEW030 SCT050
FM290400 06014G24KT P6SM FEW030 SCT050
ハワイ時間28日02-09時:060度から10ノット、突風16ノット
09-11時:060度から16ノット、突風26ノット

11-18時:060度から20ノット、突風30ノット
18時-29日02時:060度から14ノット、突風24ノット


サイパン空港
TAF PGSN 281125Z 2812/2912 06012KT P6SM VCSH SCT018
マリアナ時間28日22時-29日22時:060度から12ノットの風

ジャンル:
お天気
コメント   この記事についてブログを書く
この記事をはてなブックマークに追加
« 12/27-12/29の航空気象通報 | トップ | 12/29-12/31の航空気象通報 »
最近の画像もっと見る

コメントを投稿

ブログ作成者から承認されるまでコメントは反映されません。

コメント利用規約に同意の上コメント投稿を行ってください。

数字4桁を入力し、投稿ボタンを押してください。

あわせて読む

トラックバック

この記事のトラックバック  Ping-URL
ブログ作成者から承認されるまでトラックバックは反映されません。
  • 30日以上前の記事に対するトラックバックは受け取らないよう設定されております。
  • 送信元の記事内容が半角英数のみのトラックバックは受け取らないよう設定されております。
  • このブログへのリンクがない記事からのトラックバックは受け取らないよう設定されております。
  • ※ブログ管理者のみ、編集画面で設定の変更が可能です。